Humidity-temperature Sensor

Selected Measurement Type: Relative Humidity

 
Relative Humidity [%]     6 entries per hour
Showing data from 10/29/2014 (00:00:00 Z) to 10/28/2014 (00:01:00 Z)
Previous Next [ Day | 3-Days | 7-Days ]
First Last
Prev [ Day | 3-Days | 7-Days ] Next
First Last

Start Time:     :
End Time:     :     
Time (in GMT) :00 :50 :40 :30 :20 :10
Previous Next [ Day | 3-Days | 7-Days ]
First Last
Prev [ Day | 3-Days | 7-Days ] Next
First Last


123 => good data
MM => data is determined as missing
-- => data not received/configured
Back to Top Back to Top
10/29/2014 00:00 to 23:10 76.39 76.03 75.48 76.87 77.17 76.98
10/28/2014 23:00 to 22:10 76.81 76.47 76.32 76.30 76.47 75.33
10/28/2014 22:00 to 21:10 75.33 75.96 76.32 76.96 76.85 77.55
10/28/2014 21:00 to 20:10 77.62 78.04 78.59 78.74 78.29 77.59
10/28/2014 20:00 to 19:10 75.79 75.11 74.80 76.34 77.64 78.21
10/28/2014 19:00 to 18:10 79.04 79.18 79.42 79.63 79.61 79.69
10/28/2014 18:00 to 17:10 79.93 80.63 80.52 80.73 81.11 81.52
10/28/2014 17:00 to 16:10 81.39 81.54 81.98 82.17 82.30 81.86
10/28/2014 16:00 to 15:10 82.64 82.79 83.06 82.75 82.39 81.92
10/28/2014 15:00 to 14:10 81.75 81.69 81.83 82.60 82.13 82.75
10/28/2014 14:00 to 13:10 83.81 84.10 83.78 83.93 83.95 84.42
10/28/2014 13:00 to 12:10 85.06 85.03 85.40 85.40 85.12 84.93
10/28/2014 12:00 to 11:10 84.65 84.40 84.95 85.63 85.29 85.23
10/28/2014 11:00 to 10:10 85.29 85.23 84.67 84.65 84.61 84.38
10/28/2014 10:00 to 9:10 84.93 85.16 85.48 85.25 84.80 84.87
10/28/2014 09:00 to 8:10 85.16 84.84 84.53 84.63 84.59 84.48
10/28/2014 08:00 to 7:10 84.40 84.53 84.61 84.57 84.40 84.29
10/28/2014 07:00 to 6:10 84.04 84.00 84.08 83.76 83.40 83.64
10/28/2014 06:00 to 5:10 83.02 82.85 83.28 83.93 83.87 84.82
10/28/2014 05:00 to 4:10 85.69 85.73 84.31 82.83 82.55 83.28
10/28/2014 04:00 to 3:10 -- -- -- -- -- --
10/28/2014 03:00 to 2:10 81.33 80.96 80.82 80.56 80.10 79.76
10/28/2014 02:00 to 1:10 79.08 78.12 77.66 77.26 76.68 76.39
10/28/2014 01:00 to 0:10 75.79 74.37 73.06 73.74 76.15 77.28